createdAt,value
2019-06-07T00:01:56.530Z,19.65
2019-06-07T00:04:28.119Z,19.64
2019-06-07T00:06:59.338Z,19.57
2019-06-07T00:09:30.586Z,19.46
2019-06-07T00:12:01.745Z,19.40
2019-06-07T00:14:33.098Z,19.30
2019-06-07T00:17:04.355Z,19.14
2019-06-07T00:19:35.581Z,19.14
2019-06-07T00:22:16.467Z,19.09
2019-06-07T00:24:39.593Z,19.09
2019-06-07T00:27:11.634Z,19.06
2019-06-07T00:29:43.622Z,18.92
2019-06-07T00:32:18.369Z,18.85
2019-06-07T00:34:47.714Z,18.71
2019-06-07T00:37:20.667Z,18.66
2019-06-07T00:40:12.876Z,18.62
2019-06-07T00:42:24.671Z,18.52
2019-06-07T00:44:55.956Z,18.44
2019-06-07T00:47:27.129Z,18.44
2019-06-07T00:49:58.237Z,18.38
2019-06-07T00:55:02.419Z,18.19
2019-06-07T00:57:33.579Z,18.06
2019-06-07T01:00:06.606Z,18.10
2019-06-07T01:02:37.878Z,18.03
2019-06-07T01:05:09.601Z,18.02
2019-06-07T01:07:40.853Z,17.88
2019-06-07T01:10:14.540Z,17.87
2019-06-07T01:12:46.735Z,17.82
2019-06-07T01:15:25.600Z,17.68
2019-06-07T01:18:33.861Z,17.61
2019-06-07T01:20:27.028Z,17.50
2019-06-07T01:22:58.140Z,17.46
2019-06-07T01:25:29.373Z,17.42
2019-06-07T01:28:00.666Z,17.42
2019-06-07T01:30:31.936Z,17.50
2019-06-07T01:33:03.197Z,17.51
2019-06-07T01:35:34.524Z,17.51
2019-06-07T01:38:05.809Z,17.50
2019-06-07T01:40:37.038Z,17.37
2019-06-07T01:43:08.304Z,17.42
2019-06-07T01:45:39.698Z,17.51
2019-06-07T01:48:10.980Z,17.48
2019-06-07T01:50:42.297Z,17.37
2019-06-07T01:53:13.457Z,17.33
2019-06-07T01:55:44.668Z,17.38
2019-06-07T01:58:17.049Z,17.34
2019-06-07T02:00:48.273Z,17.37
2019-06-07T02:03:22.309Z,17.35
2019-06-07T02:05:52.632Z,17.37
2019-06-07T02:08:26.436Z,17.26
2019-06-07T02:10:56.883Z,17.28
2019-06-07T02:13:30.609Z,17.19
2019-06-07T02:16:01.041Z,17.23
2019-06-07T02:18:34.396Z,17.33
2019-06-07T02:21:05.333Z,17.42
2019-06-07T02:23:36.477Z,17.47
2019-06-07T02:26:07.776Z,17.55
2019-06-07T02:28:45.656Z,17.62
2019-06-07T02:31:12.070Z,17.67
2019-06-07T02:33:43.235Z,17.71
2019-06-07T02:36:14.567Z,17.75
2019-06-07T02:38:46.673Z,17.78
2019-06-07T02:41:18.011Z,17.79
2019-06-07T02:43:49.316Z,17.85
2019-06-07T02:46:32.584Z,17.87
2019-06-07T02:48:57.358Z,17.96
2019-06-07T02:51:35.834Z,18.00
2019-06-07T02:54:01.651Z,18.06
2019-06-07T02:56:45.424Z,18.10
2019-06-07T02:59:06.092Z,18.16
2019-06-07T03:01:41.735Z,18.19
2019-06-07T03:04:11.273Z,18.32
2019-06-07T03:06:43.807Z,18.42
2019-06-07T03:09:17.045Z,18.54
2019-06-07T03:11:50.273Z,18.70
2019-06-07T03:14:22.438Z,18.82
2019-06-07T03:16:57.173Z,18.94
2019-06-07T03:19:37.744Z,19.03
2019-06-07T03:22:09.313Z,19.13
2019-06-07T03:24:42.467Z,19.23
2019-06-07T03:27:39.392Z,19.33
2019-06-07T03:29:47.242Z,19.47
2019-06-07T03:32:18.628Z,19.59
2019-06-07T03:34:49.793Z,19.65
2019-06-07T03:37:21.019Z,19.79
2019-06-07T03:39:52.177Z,20.01
2019-06-07T03:42:23.404Z,20.21
2019-06-07T03:44:54.576Z,20.39
2019-06-07T03:47:28.377Z,20.52
2019-06-07T03:49:58.825Z,20.65
2019-06-07T03:52:33.222Z,20.77
2019-06-07T03:55:02.951Z,20.92
2019-06-07T03:58:24.781Z,20.92
2019-06-07T04:00:10.415Z,21.02
2019-06-07T04:02:42.280Z,21.10
2019-06-07T04:05:13.596Z,21.21
2019-06-07T04:07:44.841Z,21.20
2019-06-07T04:10:16.010Z,21.27
2019-06-07T04:12:47.251Z,21.42
2019-06-07T04:15:18.429Z,21.55
2019-06-07T04:18:01.267Z,21.63
2019-06-07T04:20:22.554Z,21.70
2019-06-07T04:22:53.728Z,21.76
2019-06-07T04:25:24.887Z,21.90
2019-06-07T04:27:56.212Z,21.82
2019-06-07T04:30:43.783Z,21.99
2019-06-07T04:33:15.318Z,21.96
2019-06-07T04:35:46.519Z,22.15
2019-06-07T04:38:17.735Z,22.29
2019-06-07T04:40:50.411Z,22.38
2019-06-07T04:43:21.635Z,22.52
2019-06-07T04:45:52.829Z,22.70
2019-06-07T04:48:26.096Z,22.79
2019-06-07T04:50:58.869Z,22.89
2019-06-07T04:53:34.215Z,23.05
2019-06-07T04:56:02.973Z,23.07
2019-06-07T04:58:35.706Z,23.20
2019-06-07T05:01:24.405Z,23.43
2019-06-07T05:03:44.057Z,23.55
2019-06-07T05:06:12.834Z,23.75
2019-06-07T05:08:44.099Z,23.80
2019-06-07T05:11:15.223Z,23.97
2019-06-07T05:13:46.434Z,24.09
2019-06-07T05:16:17.596Z,24.33
2019-06-07T05:18:48.945Z,24.46
2019-06-07T05:21:20.148Z,24.31
2019-06-07T05:24:10.341Z,24.56
2019-06-07T05:26:24.281Z,24.77
2019-06-07T05:28:55.506Z,24.75
2019-06-07T05:31:26.890Z,24.85
2019-06-07T05:33:58.129Z,24.89
2019-06-07T05:36:29.761Z,24.97
2019-06-07T05:39:02.239Z,24.99
2019-06-07T05:41:34.173Z,25.05
2019-06-07T05:44:12.678Z,25.11
2019-06-07T05:46:43.415Z,25.34
2019-06-07T05:49:12.591Z,25.32
2019-06-07T05:51:45.062Z,25.36
2019-06-07T05:54:16.492Z,25.51
2019-06-07T05:56:47.745Z,25.57
2019-06-07T05:59:19.012Z,25.57
2019-06-07T06:02:01.881Z,25.65
2019-06-07T06:04:23.134Z,25.81
2019-06-07T06:06:54.327Z,25.90
2019-06-07T06:09:25.787Z,26.06
2019-06-07T06:12:02.261Z,26.18
2019-06-07T06:14:29.895Z,26.25
2019-06-07T06:17:01.096Z,26.18
2019-06-07T06:19:32.347Z,26.17
2019-06-07T06:22:03.564Z,26.30
2019-06-07T06:24:34.792Z,26.32
2019-06-07T06:27:28.542Z,26.40
2019-06-07T06:29:40.539Z,26.34
2019-06-07T06:32:41.009Z,26.32
2019-06-07T06:34:49.358Z,26.48
2019-06-07T06:37:17.630Z,26.61
2019-06-07T06:39:50.130Z,26.68
2019-06-07T06:42:21.446Z,26.74
2019-06-07T06:44:54.125Z,26.49
2019-06-07T06:47:28.189Z,26.24
2019-06-07T06:50:01.093Z,26.41
2019-06-07T06:52:32.349Z,26.39
2019-06-07T06:55:05.694Z,26.28
2019-06-07T06:57:36.891Z,26.52
2019-06-07T07:00:10.484Z,26.52
2019-06-07T07:03:35.019Z,26.39
2019-06-07T07:05:14.710Z,26.44
2019-06-07T07:07:50.078Z,26.42
2019-06-07T07:10:27.877Z,26.64
2019-06-07T07:12:59.051Z,26.86
2019-06-07T07:15:31.446Z,27.37
2019-06-07T07:18:08.453Z,27.72
2019-06-07T07:20:36.480Z,27.83
2019-06-07T07:23:14.195Z,27.71
2019-06-07T07:25:58.255Z,27.83
2019-06-07T07:28:24.487Z,28.02
2019-06-07T07:30:57.306Z,27.82
2019-06-07T07:34:20.164Z,27.70
2019-06-07T07:36:23.251Z,27.80
2019-06-07T07:38:34.511Z,27.44
2019-06-07T07:41:14.582Z,26.99
2019-06-07T07:43:38.629Z,26.91
2019-06-07T07:46:28.288Z,26.71
2019-06-07T07:48:43.575Z,26.52
2019-06-07T07:51:14.865Z,26.46
2019-06-07T07:53:54.597Z,26.35
2019-06-07T07:56:18.923Z,26.58
2019-06-07T07:58:54.695Z,26.47
2019-06-07T08:01:23.119Z,26.65
2019-06-07T08:03:56.135Z,26.84
2019-06-07T08:06:27.403Z,27.02
2019-06-07T08:08:59.142Z,27.62
2019-06-07T08:11:30.458Z,28.26
2019-06-07T08:14:04.688Z,28.41
2019-06-07T08:16:35.885Z,28.72
2019-06-07T08:19:08.561Z,28.52
2019-06-07T08:21:39.787Z,28.50
2019-06-07T08:24:11.003Z,28.09
2019-06-07T08:26:42.276Z,28.35
2019-06-07T08:29:13.467Z,28.50
2019-06-07T08:31:44.723Z,28.37
2019-06-07T08:34:17.314Z,28.45
2019-06-07T08:36:49.948Z,28.58
2019-06-07T08:39:21.506Z,28.40
2019-06-07T08:42:00.557Z,28.71
2019-06-07T08:44:25.877Z,29.03
2019-06-07T08:47:18.414Z,28.44
2019-06-07T08:49:29.905Z,28.31
2019-06-07T08:52:09.871Z,28.56
2019-06-07T08:54:34.102Z,28.66
2019-06-07T08:57:19.953Z,28.59
2019-06-07T08:59:38.202Z,28.13
2019-06-07T09:02:22.854Z,28.08
2019-06-07T09:04:43.244Z,28.10
2019-06-07T09:07:19.450Z,27.84
2019-06-07T09:09:47.499Z,27.44
2019-06-07T09:12:21.517Z,27.13
2019-06-07T09:15:06.898Z,27.04
2019-06-07T09:17:27.905Z,26.73
2019-06-07T09:20:09.401Z,26.66
2019-06-07T09:22:35.500Z,26.67
2019-06-07T09:25:20.061Z,26.34
2019-06-07T09:27:40.891Z,26.40
2019-06-07T09:30:18.634Z,26.19
2019-06-07T09:32:45.779Z,26.20
2019-06-07T09:35:17.883Z,26.09
2019-06-07T09:38:07.294Z,25.81
2019-06-07T09:40:27.566Z,25.83
2019-06-07T09:43:46.730Z,25.76
2019-06-07T09:45:31.328Z,25.44
2019-06-07T09:48:11.558Z,25.46
2019-06-07T09:50:35.492Z,25.62
2019-06-07T09:53:19.030Z,25.66
2019-06-07T09:55:39.974Z,25.82
2019-06-07T09:58:48.572Z,26.06
2019-06-07T10:00:44.270Z,26.18
2019-06-07T10:03:21.252Z,26.37
2019-06-07T10:05:48.520Z,26.29
2019-06-07T10:09:26.218Z,26.36
2019-06-07T10:10:52.720Z,26.50
2019-06-07T10:13:24.144Z,26.51
2019-06-07T10:15:55.302Z,26.50
2019-06-07T10:18:26.653Z,26.42
2019-06-07T10:20:59.327Z,26.31
2019-06-07T10:23:30.973Z,26.24
2019-06-07T10:26:03.965Z,26.23
2019-06-07T10:28:35.511Z,26.31
2019-06-07T10:31:07.810Z,26.32
2019-06-07T10:33:41.311Z,26.49
2019-06-07T10:36:12.567Z,26.35
2019-06-07T10:38:43.820Z,26.43
2019-06-07T10:41:15.295Z,26.54
2019-06-07T10:43:46.554Z,26.92
2019-06-07T10:46:17.818Z,27.20
2019-06-07T10:48:49.065Z,27.71
2019-06-07T10:51:20.187Z,28.51
2019-06-07T10:53:51.550Z,29.12
2019-06-07T10:56:22.815Z,29.90
2019-06-07T10:58:54.617Z,30.18
2019-06-07T11:01:25.858Z,30.28
2019-06-07T11:03:57.275Z,30.44
2019-06-07T11:06:28.508Z,30.21
2019-06-07T11:08:59.740Z,29.64
2019-06-07T11:11:30.980Z,29.40
2019-06-07T11:14:02.251Z,29.45
2019-06-07T11:16:33.578Z,28.83
2019-06-07T11:19:06.059Z,28.85
2019-06-07T11:21:37.757Z,28.90
2019-06-07T11:24:10.144Z,29.39
2019-06-07T11:26:41.519Z,29.61
2019-06-07T11:29:12.983Z,29.88
2019-06-07T11:31:47.281Z,29.79
2019-06-07T11:34:19.430Z,29.37
2019-06-07T11:36:51.184Z,29.21
2019-06-07T11:39:22.643Z,28.91
2019-06-07T11:41:53.856Z,28.86
2019-06-07T11:44:25.154Z,28.87
2019-06-07T11:47:00.431Z,29.14
2019-06-07T11:49:31.732Z,29.38
2019-06-07T11:52:03.276Z,29.53
2019-06-07T11:54:35.482Z,30.14
2019-06-07T11:57:08.841Z,29.95
2019-06-07T11:59:40.146Z,30.13
2019-06-07T12:02:11.533Z,30.79
2019-06-07T12:04:42.966Z,30.58
2019-06-07T12:07:15.939Z,30.96
2019-06-07T12:09:56.536Z,31.16
2019-06-07T12:12:20.782Z,31.10
2019-06-07T12:14:52.037Z,30.74
2019-06-07T12:17:23.305Z,30.52
2019-06-07T12:19:54.756Z,30.50
2019-06-07T12:22:25.967Z,30.13
2019-06-07T12:24:57.261Z,30.33
2019-06-07T12:27:29.354Z,30.01
2019-06-07T12:30:09.208Z,30.18
2019-06-07T12:32:33.587Z,30.60
2019-06-07T12:35:08.714Z,31.02
2019-06-07T12:37:44.262Z,31.06
2019-06-07T12:40:24.511Z,31.53
2019-06-07T12:42:47.572Z,31.56
2019-06-07T12:45:40.164Z,31.74
2019-06-07T12:47:51.668Z,31.59
2019-06-07T12:50:25.304Z,31.33
2019-06-07T12:52:55.952Z,31.69
2019-06-07T12:55:27.348Z,31.98
2019-06-07T12:57:58.621Z,31.55
2019-06-07T13:00:30.361Z,31.92
2019-06-07T13:03:01.502Z,31.93
2019-06-07T13:05:32.705Z,31.56
2019-06-07T13:08:04.795Z,31.74
2019-06-07T13:10:36.062Z,31.46
2019-06-07T13:13:08.858Z,31.92
2019-06-07T13:15:40.330Z,31.83
2019-06-07T13:18:15.014Z,32.16
2019-06-07T13:20:45.134Z,31.56
2019-06-07T13:23:16.490Z,31.03
2019-06-07T13:25:48.012Z,30.55
2019-06-07T13:28:20.742Z,30.53
2019-06-07T13:30:52.912Z,30.37
2019-06-07T13:33:25.763Z,29.97
2019-06-07T13:35:57.231Z,29.87
2019-06-07T13:38:29.072Z,30.01
2019-06-07T13:41:00.391Z,30.23
2019-06-07T13:43:32.366Z,30.22
2019-06-07T13:46:03.559Z,30.01
2019-06-07T13:48:34.736Z,29.93
2019-06-07T13:51:05.988Z,29.59
2019-06-07T13:53:37.172Z,29.20
2019-06-07T13:56:08.455Z,29.12
2019-06-07T13:58:39.567Z,29.11
2019-06-07T14:01:10.771Z,28.87
2019-06-07T14:03:41.929Z,28.64
2019-06-07T14:06:13.163Z,28.11
2019-06-07T14:08:44.379Z,27.72
2019-06-07T14:11:15.593Z,27.24
2019-06-07T14:13:46.744Z,27.07
2019-06-07T14:16:17.944Z,26.64
2019-06-07T14:18:49.107Z,26.53
2019-06-07T14:21:20.467Z,26.75
2019-06-07T14:23:51.673Z,26.61
2019-06-07T14:26:23.262Z,26.77
2019-06-07T14:28:54.516Z,26.64
2019-06-07T14:31:26.271Z,26.65
2019-06-07T14:33:57.610Z,26.64
2019-06-07T14:36:28.960Z,26.71
2019-06-07T14:39:00.382Z,26.82
2019-06-07T14:41:31.929Z,26.85
2019-06-07T14:44:04.528Z,26.21
2019-06-07T14:46:35.782Z,25.75
2019-06-07T14:49:07.410Z,24.40
2019-06-07T14:51:39.101Z,23.39
2019-06-07T14:54:10.296Z,21.33
2019-06-07T14:56:42.028Z,21.24
2019-06-07T14:59:13.796Z,21.10
2019-06-07T15:01:45.022Z,21.08
2019-06-07T15:04:16.182Z,20.94
2019-06-07T15:06:48.020Z,21.04
2019-06-07T15:09:19.643Z,21.04
2019-06-07T15:11:50.970Z,20.99
2019-06-07T15:14:22.150Z,21.11
2019-06-07T15:16:53.366Z,21.23
2019-06-07T15:19:24.576Z,21.41
2019-06-07T15:21:55.779Z,21.48
2019-06-07T15:24:28.101Z,21.58
2019-06-07T15:26:59.328Z,21.63
2019-06-07T15:29:31.683Z,21.80
2019-06-07T15:32:03.016Z,21.94
2019-06-07T15:34:34.369Z,22.08
2019-06-07T15:37:05.605Z,22.14
2019-06-07T15:39:36.864Z,22.39
2019-06-07T15:42:08.059Z,22.65
2019-06-07T15:44:39.552Z,22.99
2019-06-07T15:47:10.834Z,23.11
2019-06-07T15:49:41.985Z,23.22
2019-06-07T15:52:13.212Z,23.18
2019-06-07T15:54:44.290Z,23.21
2019-06-07T15:57:15.555Z,23.39
2019-06-07T15:59:46.736Z,23.37
2019-06-07T16:02:17.944Z,23.41
2019-06-07T16:04:49.032Z,23.59
2019-06-07T16:07:20.253Z,23.62
2019-06-07T16:09:51.438Z,23.76
2019-06-07T16:12:22.644Z,23.64
2019-06-07T16:14:53.809Z,23.80
2019-06-07T16:17:25.037Z,23.82
2019-06-07T16:19:56.248Z,23.63
2019-06-07T16:22:27.498Z,23.74
2019-06-07T16:24:58.660Z,23.78
2019-06-07T16:27:29.913Z,23.73
2019-06-07T16:30:08.785Z,23.81
2019-06-07T16:32:34.994Z,23.64
2019-06-07T16:35:07.706Z,23.67
2019-06-07T16:37:40.654Z,23.88
2019-06-07T16:40:13.462Z,23.97
2019-06-07T16:42:45.213Z,23.97
2019-06-07T16:45:16.631Z,24.08
2019-06-07T16:47:49.764Z,23.90
2019-06-07T16:50:20.748Z,24.00
2019-06-07T16:52:51.999Z,24.00
2019-06-07T16:55:23.272Z,24.02
2019-06-07T16:57:54.889Z,24.04
2019-06-07T17:00:26.073Z,23.97
2019-06-07T17:02:57.338Z,23.77
2019-06-07T17:05:28.526Z,23.92
2019-06-07T17:07:59.757Z,23.92
2019-06-07T17:10:30.933Z,24.03
2019-06-07T17:13:02.174Z,23.97
2019-06-07T17:15:33.355Z,23.99
2019-06-07T17:18:04.590Z,24.04
2019-06-07T17:20:36.248Z,23.94
2019-06-07T17:23:07.512Z,23.84
2019-06-07T17:25:39.442Z,23.91
2019-06-07T17:28:10.803Z,23.92
2019-06-07T17:30:41.925Z,23.84
2019-06-07T17:33:13.136Z,23.85
2019-06-07T17:35:44.731Z,23.80
2019-06-07T17:38:16.026Z,23.79
2019-06-07T17:40:47.221Z,23.88
2019-06-07T17:43:18.415Z,23.92
2019-06-07T17:45:51.565Z,23.98
2019-06-07T17:48:24.043Z,23.98
2019-06-07T17:50:55.355Z,23.93
2019-06-07T17:53:26.602Z,23.80
2019-06-07T17:55:57.747Z,23.77
2019-06-07T17:58:29.075Z,23.56
2019-06-07T18:01:00.244Z,23.50
2019-06-07T18:03:31.448Z,23.46
2019-06-07T18:06:03.801Z,23.54
2019-06-07T18:08:36.060Z,23.37
2019-06-07T18:11:07.219Z,23.26
2019-06-07T18:13:38.360Z,23.23
2019-06-07T18:16:09.521Z,23.15
2019-06-07T18:18:40.736Z,23.03
2019-06-07T18:21:11.923Z,22.94
2019-06-07T18:23:43.139Z,22.98
2019-06-07T18:26:14.295Z,22.99
2019-06-07T18:28:46.590Z,22.99
2019-06-07T18:31:17.805Z,22.95
2019-06-07T18:33:49.037Z,22.82
2019-06-07T18:36:20.203Z,22.85
2019-06-07T18:38:51.442Z,22.86
2019-06-07T18:41:22.625Z,22.70
2019-06-07T18:43:53.845Z,22.83
2019-06-07T18:46:25.876Z,22.83
2019-06-07T18:48:57.115Z,22.77
2019-06-07T18:51:28.284Z,22.68
2019-06-07T18:53:59.665Z,22.61
2019-06-07T18:56:30.857Z,22.67
2019-06-07T18:59:02.204Z,22.66
2019-06-07T19:01:33.419Z,22.58
2019-06-07T19:04:04.634Z,22.57
2019-06-07T19:06:35.917Z,22.46
2019-06-07T19:09:07.453Z,22.44
2019-06-07T19:11:38.647Z,22.47
2019-06-07T19:14:09.882Z,22.49
2019-06-07T19:16:41.040Z,22.54
2019-06-07T19:19:12.285Z,22.31
2019-06-07T19:21:43.459Z,22.37
2019-06-07T19:24:14.698Z,22.44
2019-06-07T19:26:45.868Z,22.42
2019-06-07T19:29:17.102Z,22.37
2019-06-07T19:31:48.306Z,22.33
2019-06-07T19:34:19.591Z,22.28
2019-06-07T19:36:51.469Z,22.20
2019-06-07T19:39:22.738Z,22.10
2019-06-07T19:41:54.021Z,22.07
2019-06-07T19:44:25.300Z,22.02
2019-06-07T19:46:58.496Z,22.02
2019-06-07T19:49:29.753Z,21.82
2019-06-07T19:52:01.127Z,21.82
2019-06-07T19:54:32.485Z,21.79
2019-06-07T19:57:03.770Z,21.62
2019-06-07T19:59:35.020Z,21.68
2019-06-07T20:02:06.226Z,21.65
2019-06-07T20:04:37.436Z,21.60
2019-06-07T20:07:08.592Z,21.52
2019-06-07T20:09:39.812Z,21.51
2019-06-07T20:12:10.908Z,21.49
2019-06-07T20:14:42.160Z,21.41
2019-06-07T20:17:13.426Z,21.21
2019-06-07T20:19:44.629Z,21.29
2019-06-07T20:22:15.802Z,21.24
2019-06-07T20:24:47.040Z,21.17
2019-06-07T20:27:18.180Z,21.06
2019-06-07T20:29:49.428Z,21.00
2019-06-07T20:32:20.614Z,20.89
2019-06-07T20:34:51.866Z,20.98
2019-06-07T20:37:23.194Z,20.97
2019-06-07T20:39:54.436Z,20.94
2019-06-07T20:42:25.625Z,20.91
2019-06-07T20:44:57.581Z,20.90
2019-06-07T20:47:29.723Z,20.92
2019-06-07T20:50:02.336Z,20.88
2019-06-07T20:52:33.585Z,20.85
2019-06-07T20:55:06.975Z,20.85
2019-06-07T20:57:38.352Z,20.84
2019-06-07T21:00:20.620Z,20.81
2019-06-07T21:02:43.692Z,20.79
2019-06-07T21:05:14.934Z,20.75
2019-06-07T21:07:46.094Z,20.69
2019-06-07T21:10:17.323Z,20.65
2019-06-07T21:12:48.494Z,20.58
2019-06-07T21:15:19.716Z,20.47
2019-06-07T21:17:50.885Z,20.31
2019-06-07T21:20:22.129Z,20.32
2019-06-07T21:22:53.352Z,20.27
2019-06-07T21:25:24.767Z,20.30
2019-06-07T21:27:55.955Z,20.30
2019-06-07T21:30:27.185Z,20.05
2019-06-07T21:32:58.369Z,20.17
2019-06-07T21:35:29.514Z,20.14
2019-06-07T21:38:01.903Z,20.14
2019-06-07T21:40:33.108Z,20.08
2019-06-07T21:43:04.544Z,20.20
2019-06-07T21:45:35.777Z,20.17
2019-06-07T21:48:08.837Z,20.07
2019-06-07T21:50:40.108Z,20.19
2019-06-07T21:53:11.248Z,20.04
2019-06-07T21:55:42.446Z,20.14
2019-06-07T21:58:13.655Z,20.09
2019-06-07T22:00:56.824Z,20.27
2019-06-07T22:03:28.026Z,20.45
2019-06-07T22:05:59.250Z,20.67
2019-06-07T22:08:30.420Z,20.78
2019-06-07T22:11:01.622Z,20.83
2019-06-07T22:13:32.817Z,20.91
2019-06-07T22:16:04.138Z,21.04
2019-06-07T22:18:35.304Z,21.12
2019-06-07T22:21:06.518Z,21.16
2019-06-07T22:23:37.665Z,21.04
2019-06-07T22:26:09.043Z,21.18
2019-06-07T22:28:40.215Z,21.14
2019-06-07T22:31:12.761Z,21.27
2019-06-07T22:33:43.943Z,21.22
2019-06-07T22:36:15.998Z,20.92
2019-06-07T22:38:47.254Z,21.01
2019-06-07T22:41:18.464Z,20.75
2019-06-07T22:43:49.628Z,20.70
2019-06-07T22:46:35.918Z,20.45
2019-06-07T22:48:56.181Z,20.54
2019-06-07T22:51:27.406Z,20.49
2019-06-07T22:53:58.601Z,20.41
2019-06-07T22:56:31.403Z,20.61
2019-06-07T22:59:02.573Z,20.49
2019-06-07T23:01:33.958Z,20.33
2019-06-07T23:04:05.137Z,20.40
2019-06-07T23:06:36.364Z,20.61
2019-06-07T23:09:08.822Z,20.67
2019-06-07T23:11:40.113Z,20.62
2019-06-07T23:14:11.297Z,20.61
2019-06-07T23:16:55.029Z,20.58
2019-06-07T23:19:16.251Z,20.58
2019-06-07T23:21:47.487Z,20.39
2019-06-07T23:24:20.132Z,20.33
2019-06-07T23:26:51.697Z,20.26
2019-06-07T23:29:22.912Z,20.06
2019-06-07T23:32:10.491Z,19.86
2019-06-07T23:34:41.694Z,19.79
2019-06-07T23:37:13.097Z,19.74
2019-06-07T23:39:44.292Z,19.71
2019-06-07T23:42:15.592Z,19.72
2019-06-07T23:44:46.726Z,19.71
2019-06-07T23:47:20.122Z,19.71
2019-06-07T23:49:51.830Z,19.76
2019-06-07T23:52:23.040Z,19.83
2019-06-07T23:54:54.126Z,19.80
2019-06-07T23:57:25.342Z,19.86
2019-06-07T23:59:56.504Z,19.90
